Hauptseite
METAR-TAF:

METAR-TAF

Flughäfen :

Stockholm-Arlanda, Schweden

Flughafen Stockholm/Arlanda

Breite: 59-39N, Länge: 017-57E, Höhe: 38 m

Beobachtung

Neuester Wetterbericht von vor 29 Minuten, um 07:50 UTC
Wind 9 kt aus Ost/Nordost
Temperatur 6°C
Luftfeuchtigkeit 70%
Luftdruck 1018 hPa
Sichtweite 10 km oder mehr
keine Wolken unter 1500 m und keine Kumulonimbus oder Gewitterwolken

METAR: ESSA 280750Z 06009KT CAVOK 06/01 Q1018 R01L/19//95 R08/19//95 R01R/19//95 NOSIG

Zeit: 10:19 (08:19 UTC)

Prognose

Neuester Wetterbericht von vor 2 Stunden und 49 Minuten, um 05:30 UTC
Gültige Prognose vom 28 um 06 UTC bis 29 um 06 UTC
Wind 10 kt aus Ost
Sichtweite 10 km oder mehr
keine Wolken unter 1500 m und keine Kumulonimbus oder Gewitterwolken
Wahrscheinlichkeit 40%
vom 28 um 20 UTC bis 29 um 03 UTC
Sichtweite: 0500 m
in der Höhe von 200 ft
Nebel

TAF: ESSA 280530Z 2806/2906 08010KT CAVOK PROB40 2820/2903 0500 FG VV002

Wetterbeobachtungen und Prognosen von mehr als 4000 Flughäfen (METAR und TAF Bericht).

Die verfügbaren Stationen werden durch gelbe und rote Markierungen auf der Karte dargestellt.

Führen Sie die Maus auf sie, um den Namen der Station zu sehen.

Darauf klicken, um die Beobachtung von Wetterbeobachtungen und Prognosen zu sehen.

Um die Karte zu ändern : klicken Sie auf den grünen Tasten mit einem schwarzen Kreuz Zum Vergrößern, auf den grünen Button mit einem Gedankenstrich zu verkleinern, oder auf die grünen Pfeile für benachbarte Karten.


METAR-TAF: